sensor_id;sensor_type;location;lat;lon;timestamp;pressure;altitude;pressure_sealevel;temperature;humidity
35577;BME280;21680;52.400;16.920;2022-12-07T00:01:26;100219.90;;;1.52;100.00
35577;BME280;21680;52.400;16.920;2022-12-07T00:03:54;100218.32;;;1.52;100.00
35577;BME280;21680;52.400;16.920;2022-12-07T00:06:22;100215.15;;;1.52;100.00
35577;BME280;21680;52.400;16.920;2022-12-07T00:08:47;100217.59;;;1.53;100.00
35577;BME280;21680;52.400;16.920;2022-12-07T00:11:16;100218.27;;;1.55;100.00
35577;BME280;21680;52.400;16.920;2022-12-07T00:13:42;100221.41;;;1.57;100.00
35577;BME280;21680;52.400;16.920;2022-12-07T00:16:16;100222.46;;;1.57;100.00
35577;BME280;21680;52.400;16.920;2022-12-07T00:18:42;100216.12;;;1.58;100.00
35577;BME280;21680;52.400;16.920;2022-12-07T00:21:13;100215.41;;;1.58;100.00
35577;BME280;21680;52.400;16.920;2022-12-07T00:23:39;100211.71;;;1.58;100.00
35577;BME280;21680;52.400;16.920;2022-12-07T00:28:30;100208.53;;;1.60;100.00
35577;BME280;21680;52.400;16.920;2022-12-07T00:31:07;100211.31;;;1.62;100.00
35577;BME280;21680;52.400;16.920;2022-12-07T00:33:34;100209.35;;;1.64;100.00
35577;BME280;21680;52.400;16.920;2022-12-07T00:36:00;100207.95;;;1.64;100.00
35577;BME280;21680;52.400;16.920;2022-12-07T00:38:29;100206.52;;;1.65;100.00
35577;BME280;21680;52.400;16.920;2022-12-07T00:40:56;100196.64;;;1.66;100.00
35577;BME280;21680;52.400;16.920;2022-12-07T00:43:22;100196.98;;;1.67;100.00
35577;BME280;21680;52.400;16.920;2022-12-07T00:45:47;100197.85;;;1.68;100.00
35577;BME280;21680;52.400;16.920;2022-12-07T00:48:12;100203.63;;;1.71;100.00
35577;BME280;21680;52.400;16.920;2022-12-07T00:50:37;100198.51;;;1.71;100.00
35577;BME280;21680;52.400;16.920;2022-12-07T00:53:02;100198.16;;;1.71;100.00
35577;BME280;21680;52.400;16.920;2022-12-07T00:55:28;100193.20;;;1.72;100.00
35577;BME280;21680;52.400;16.920;2022-12-07T00:57:53;100193.73;;;1.72;100.00
35577;BME280;21680;52.400;16.920;2022-12-07T01:00:18;100193.56;;;1.72;100.00
35577;BME280;21680;52.400;16.920;2022-12-07T01:02:44;100192.16;;;1.71;100.00
35577;BME280;21680;52.400;16.920;2022-12-07T01:05:09;100192.33;;;1.72;100.00
35577;BME280;21680;52.400;16.920;2022-12-07T01:07:34;100193.55;;;1.73;100.00
35577;BME280;21680;52.400;16.920;2022-12-07T01:09:59;100192.65;;;1.74;100.00
35577;BME280;21680;52.400;16.920;2022-12-07T01:12:25;100188.05;;;1.75;100.00
35577;BME280;21680;52.400;16.920;2022-12-07T01:14:50;100188.02;;;1.78;100.00
35577;BME280;21680;52.400;16.920;2022-12-07T01:17:15;100181.81;;;1.80;100.00
35577;BME280;21680;52.400;16.920;2022-12-07T01:19:40;100181.95;;;1.82;100.00
35577;BME280;21680;52.400;16.920;2022-12-07T01:22:06;100179.45;;;1.84;100.00
35577;BME280;21680;52.400;16.920;2022-12-07T01:24:31;100184.19;;;1.86;100.00
35577;BME280;21680;52.400;16.920;2022-12-07T01:26:56;100184.70;;;1.87;100.00
35577;BME280;21680;52.400;16.920;2022-12-07T01:29:21;100184.84;;;1.90;100.00
35577;BME280;21680;52.400;16.920;2022-12-07T01:31:48;100180.77;;;1.90;100.00
35577;BME280;21680;52.400;16.920;2022-12-07T01:34:14;100181.63;;;1.91;100.00
35577;BME280;21680;52.400;16.920;2022-12-07T01:36:39;100178.27;;;1.92;100.00
35577;BME280;21680;52.400;16.920;2022-12-07T01:39:06;100180.18;;;1.94;100.00
35577;BME280;21680;52.400;16.920;2022-12-07T01:41:35;100181.23;;;1.94;100.00
35577;BME280;21680;52.400;16.920;2022-12-07T01:44:26;100186.16;;;1.95;100.00
35577;BME280;21680;52.400;16.920;2022-12-07T01:46:56;100181.75;;;1.95;100.00
35577;BME280;21680;52.400;16.920;2022-12-07T01:51:52;100177.34;;;1.96;100.00
35577;BME280;21680;52.400;16.920;2022-12-07T01:54:20;100176.80;;;1.96;100.00
35577;BME280;21680;52.400;16.920;2022-12-07T01:56:52;100173.11;;;1.96;100.00
35577;BME280;21680;52.400;16.920;2022-12-07T01:59:21;100162.89;;;1.96;100.00
35577;BME280;21680;52.400;16.920;2022-12-07T02:01:50;100160.91;;;1.99;100.00
35577;BME280;21680;52.400;16.920;2022-12-07T02:04:15;100162.45;;;2.01;100.00
35577;BME280;21680;52.400;16.920;2022-12-07T02:06:41;100161.19;;;2.03;100.00
35577;BME280;21680;52.400;16.920;2022-12-07T02:09:07;100159.05;;;2.04;100.00
35577;BME280;21680;52.400;16.920;2022-12-07T02:11:33;100162.73;;;2.05;100.00
35577;BME280;21680;52.400;16.920;2022-12-07T02:13:58;100157.44;;;2.06;100.00
35577;BME280;21680;52.400;16.920;2022-12-07T02:24:54;100154.10;;;2.06;100.00
35577;BME280;21680;52.400;16.920;2022-12-07T02:30:22;100145.84;;;2.04;100.00
35577;BME280;21680;52.400;16.920;2022-12-07T02:33:11;100140.18;;;2.05;100.00
35577;BME280;21680;52.400;16.920;2022-12-07T02:35:43;100141.41;;;2.05;100.00
35577;BME280;21680;52.400;16.920;2022-12-07T02:38:16;100133.99;;;2.06;100.00
35577;BME280;21680;52.400;16.920;2022-12-07T02:41:04;100133.80;;;2.07;100.00
35577;BME280;21680;52.400;16.920;2022-12-07T02:43:35;100130.96;;;2.08;100.00
35577;BME280;21680;52.400;16.920;2022-12-07T02:46:09;100129.04;;;2.08;100.00
35577;BME280;21680;52.400;16.920;2022-12-07T02:48:37;100132.20;;;2.08;100.00
35577;BME280;21680;52.400;16.920;2022-12-07T02:51:04;100128.87;;;2.07;100.00
35577;BME280;21680;52.400;16.920;2022-12-07T02:53:41;100128.52;;;2.07;100.00
35577;BME280;21680;52.400;16.920;2022-12-07T03:00:25;100131.70;;;2.07;100.00
35577;BME280;21680;52.400;16.920;2022-12-07T03:10:50;100136.10;;;2.07;100.00
35577;BME280;21680;52.400;16.920;2022-12-07T03:13:22;100138.92;;;2.06;100.00
35577;BME280;21680;52.400;16.920;2022-12-07T03:18:20;100141.27;;;2.03;100.00
35577;BME280;21680;52.400;16.920;2022-12-07T03:20:48;100141.63;;;2.03;100.00
35577;BME280;21680;52.400;16.920;2022-12-07T03:23:17;100146.57;;;2.03;100.00
35577;BME280;21680;52.400;16.920;2022-12-07T03:25:49;100143.58;;;2.02;100.00
35577;BME280;21680;52.400;16.920;2022-12-07T03:28:19;100142.02;;;2.01;100.00
35577;BME280;21680;52.400;16.920;2022-12-07T03:30:51;100143.27;;;2.00;100.00
35577;BME280;21680;52.400;16.920;2022-12-07T03:33:30;100140.67;;;1.97;100.00
35577;BME280;21680;52.400;16.920;2022-12-07T03:36:07;100137.70;;;1.96;100.00
35577;BME280;21680;52.400;16.920;2022-12-07T03:38:45;100139.30;;;1.94;100.00
35577;BME280;21680;52.400;16.920;2022-12-07T03:41:24;100140.17;;;1.94;100.00
35577;BME280;21680;52.400;16.920;2022-12-07T03:43:50;100134.90;;;1.94;100.00
35577;BME280;21680;52.400;16.920;2022-12-07T03:48:59;100136.52;;;1.92;100.00
35577;BME280;21680;52.400;16.920;2022-12-07T03:52:04;100134.62;;;1.90;100.00
35577;BME280;21680;52.400;16.920;2022-12-07T03:54:41;100134.26;;;1.90;100.00
35577;BME280;21680;52.400;16.920;2022-12-07T03:57:10;100137.94;;;1.92;100.00
35577;BME280;21680;52.400;16.920;2022-12-07T03:59:38;100132.66;;;1.91;100.00
35577;BME280;21680;52.400;16.920;2022-12-07T04:02:05;100130.71;;;1.92;100.00
35577;BME280;21680;52.400;16.920;2022-12-07T04:04:32;100128.27;;;1.90;100.00
35577;BME280;21680;52.400;16.920;2022-12-07T04:06:58;100125.48;;;1.88;100.00
35577;BME280;21680;52.400;16.920;2022-12-07T04:09:24;100123.36;;;1.89;100.00
35577;BME280;21680;52.400;16.920;2022-12-07T04:11:49;100126.36;;;1.89;100.00
35577;BME280;21680;52.400;16.920;2022-12-07T04:14:15;100123.02;;;1.88;100.00
35577;BME280;21680;52.400;16.920;2022-12-07T04:16:55;100125.13;;;1.89;100.00
35577;BME280;21680;52.400;16.920;2022-12-07T04:19:26;100125.30;;;1.88;100.00
35577;BME280;21680;52.400;16.920;2022-12-07T04:21:52;100120.02;;;1.88;100.00
35577;BME280;21680;52.400;16.920;2022-12-07T04:24:18;100115.61;;;1.89;100.00
35577;BME280;21680;52.400;16.920;2022-12-07T04:26:45;100113.83;;;1.90;100.00
35577;BME280;21680;52.400;16.920;2022-12-07T04:29:11;100110.98;;;1.91;100.00
35577;BME280;21680;52.400;16.920;2022-12-07T04:31:38;100100.94;;;1.91;100.00
35577;BME280;21680;52.400;16.920;2022-12-07T04:34:04;100096.35;;;1.92;100.00
35577;BME280;21680;52.400;16.920;2022-12-07T04:36:30;100097.25;;;1.91;100.00
35577;BME280;21680;52.400;16.920;2022-12-07T04:38:56;100101.17;;;1.88;100.00
35577;BME280;21680;52.400;16.920;2022-12-07T04:41:22;100108.41;;;1.87;100.00
35577;BME280;21680;52.400;16.920;2022-12-07T04:44:01;100108.96;;;1.86;100.00
35577;BME280;21680;52.400;16.920;2022-12-07T04:46:28;100104.95;;;1.84;100.00
35577;BME280;21680;52.400;16.920;2022-12-07T04:48:54;100104.05;;;1.84;100.00
35577;BME280;21680;52.400;16.920;2022-12-07T04:51:23;100105.82;;;1.84;100.00
35577;BME280;21680;52.400;16.920;2022-12-07T04:53:50;100100.34;;;1.85;100.00
35577;BME280;21680;52.400;16.920;2022-12-07T04:56:16;100092.95;;;1.85;100.00
35577;BME280;21680;52.400;16.920;2022-12-07T04:58:42;100093.98;;;1.86;100.00
35577;BME280;21680;52.400;16.920;2022-12-07T05:01:08;100082.20;;;1.85;100.00
35577;BME280;21680;52.400;16.920;2022-12-07T05:03:34;100087.14;;;1.84;100.00
35577;BME280;21680;52.400;16.920;2022-12-07T05:05:59;100088.02;;;1.85;100.00
35577;BME280;21680;52.400;16.920;2022-12-07T05:08:24;100082.95;;;1.82;100.00
35577;BME280;21680;52.400;16.920;2022-12-07T05:10:49;100076.09;;;1.82;100.00
35577;BME280;21680;52.400;16.920;2022-12-07T05:13:15;100076.45;;;1.81;100.00
35577;BME280;21680;52.400;16.920;2022-12-07T05:15:41;100074.71;;;1.81;100.00
35577;BME280;21680;52.400;16.920;2022-12-07T05:18:09;100072.23;;;1.81;100.00
35577;BME280;21680;52.400;16.920;2022-12-07T05:20:35;100071.52;;;1.81;100.00
35577;BME280;21680;52.400;16.920;2022-12-07T05:23:00;100073.98;;;1.81;100.00
35577;BME280;21680;52.400;16.920;2022-12-07T05:25:25;100072.94;;;1.81;100.00
35577;BME280;21680;52.400;16.920;2022-12-07T05:27:50;100072.06;;;1.81;100.00
35577;BME280;21680;52.400;16.920;2022-12-07T05:30:16;100071.69;;;1.82;100.00
35577;BME280;21680;52.400;16.920;2022-12-07T05:32:41;100076.98;;;1.81;100.00
35577;BME280;21680;52.400;16.920;2022-12-07T05:35:07;100075.90;;;1.83;100.00
35577;BME280;21680;52.400;16.920;2022-12-07T05:37:32;100073.27;;;1.83;100.00
35577;BME280;21680;52.400;16.920;2022-12-07T05:39:58;100073.44;;;1.83;100.00
35577;BME280;21680;52.400;16.920;2022-12-07T05:42:23;100070.42;;;1.84;100.00
35577;BME280;21680;52.400;16.920;2022-12-07T05:44:48;100072.72;;;1.83;100.00
35577;BME280;21680;52.400;16.920;2022-12-07T05:47:14;100071.81;;;1.85;100.00
35577;BME280;21680;52.400;16.920;2022-12-07T05:49:40;100072.67;;;1.86;100.00
35577;BME280;21680;52.400;16.920;2022-12-07T05:52:06;100074.45;;;1.85;100.00
35577;BME280;21680;52.400;16.920;2022-12-07T05:54:31;100068.32;;;1.83;100.00
35577;BME280;21680;52.400;16.920;2022-12-07T05:56:57;100068.15;;;1.83;100.00
35577;BME280;21680;52.400;16.920;2022-12-07T05:59:23;100068.73;;;1.80;100.00
35577;BME280;21680;52.400;16.920;2022-12-07T06:02:15;100071.75;;;1.78;100.00
35577;BME280;21680;52.400;16.920;2022-12-07T06:04:43;100064.25;;;1.74;100.00
35577;BME280;21680;52.400;16.920;2022-12-07T06:07:11;100061.13;;;1.71;100.00
35577;BME280;21680;52.400;16.920;2022-12-07T06:09:37;100067.35;;;1.68;100.00
35577;BME280;21680;52.400;16.920;2022-12-07T06:12:03;100065.11;;;1.64;100.00
35577;BME280;21680;52.400;16.920;2022-12-07T06:14:47;100068.34;;;1.61;100.00
35577;BME280;21680;52.400;16.920;2022-12-07T06:17:13;100071.21;;;1.57;100.00
35577;BME280;21680;52.400;16.920;2022-12-07T06:19:39;100069.32;;;1.55;100.00
35577;BME280;21680;52.400;16.920;2022-12-07T06:22:05;100070.05;;;1.53;100.00
35577;BME280;21680;52.400;16.920;2022-12-07T06:24:32;100070.08;;;1.51;100.00
35577;BME280;21680;52.400;16.920;2022-12-07T06:26:58;100069.59;;;1.49;100.00
35577;BME280;21680;52.400;16.920;2022-12-07T06:29:24;100067.34;;;1.46;100.00
35577;BME280;21680;52.400;16.920;2022-12-07T06:31:49;100066.83;;;1.45;100.00
35577;BME280;21680;52.400;16.920;2022-12-07T06:34:17;100065.27;;;1.44;100.00
35577;BME280;21680;52.400;16.920;2022-12-07T06:36:43;100063.15;;;1.44;100.00
35577;BME280;21680;52.400;16.920;2022-12-07T06:39:09;100057.37;;;1.42;100.00
35577;BME280;21680;52.400;16.920;2022-12-07T06:41:38;100055.84;;;1.39;100.00
35577;BME280;21680;52.400;16.920;2022-12-07T06:44:06;100057.27;;;1.37;100.00
35577;BME280;21680;52.400;16.920;2022-12-07T06:46:32;100056.44;;;1.34;100.00
35577;BME280;21680;52.400;16.920;2022-12-07T06:48:57;100058.23;;;1.32;100.00
35577;BME280;21680;52.400;16.920;2022-12-07T06:51:22;100061.23;;;1.31;100.00
35577;BME280;21680;52.400;16.920;2022-12-07T06:53:48;100054.22;;;1.29;100.00
35577;BME280;21680;52.400;16.920;2022-12-07T06:56:13;100057.05;;;1.29;100.00
35577;BME280;21680;52.400;16.920;2022-12-07T06:58:39;100054.24;;;1.28;100.00
35577;BME280;21680;52.400;16.920;2022-12-07T07:01:14;100055.65;;;1.27;100.00
35577;BME280;21680;52.400;16.920;2022-12-07T07:03:40;100054.77;;;1.28;100.00
35577;BME280;21680;52.400;16.920;2022-12-07T07:06:06;100060.92;;;1.28;100.00
35577;BME280;21680;52.400;16.920;2022-12-07T07:08:33;100057.80;;;1.26;100.00
35577;BME280;21680;52.400;16.920;2022-12-07T07:10:58;100057.81;;;1.25;100.00
35577;BME280;21680;52.400;16.920;2022-12-07T07:13:23;100056.06;;;1.25;100.00
35577;BME280;21680;52.400;16.920;2022-12-07T07:15:49;100053.95;;;1.24;100.00
35577;BME280;21680;52.400;16.920;2022-12-07T07:18:14;100049.56;;;1.23;100.00
35577;BME280;21680;52.400;16.920;2022-12-07T07:20:39;100049.38;;;1.24;100.00
35577;BME280;21680;52.400;16.920;2022-12-07T07:23:05;100051.84;;;1.24;100.00
35577;BME280;21680;52.400;16.920;2022-12-07T07:25:31;100049.92;;;1.23;100.00
35577;BME280;21680;52.400;16.920;2022-12-07T07:27:57;100050.47;;;1.21;100.00
35577;BME280;21680;52.400;16.920;2022-12-07T07:30:22;100048.00;;;1.22;100.00
35577;BME280;21680;52.400;16.920;2022-12-07T07:32:48;100048.05;;;1.19;100.00
35577;BME280;21680;52.400;16.920;2022-12-07T07:35:13;100048.23;;;1.19;100.00
35577;BME280;21680;52.400;16.920;2022-12-07T07:37:39;100042.23;;;1.19;100.00
35577;BME280;21680;52.400;16.920;2022-12-07T07:40:05;100038.18;;;1.19;100.00
35577;BME280;21680;52.400;16.920;2022-12-07T07:42:31;100039.73;;;1.22;100.00
35577;BME280;21680;52.400;16.920;2022-12-07T07:44:56;100030.91;;;1.23;100.00
35577;BME280;21680;52.400;16.920;2022-12-07T07:47:21;100035.49;;;1.23;100.00
35577;BME280;21680;52.400;16.920;2022-12-07T07:49:46;100042.15;;;1.24;100.00
35577;BME280;21680;52.400;16.920;2022-12-07T07:52:12;100037.56;;;1.25;100.00
35577;BME280;21680;52.400;16.920;2022-12-07T07:54:37;100044.77;;;1.26;100.00
35577;BME280;21680;52.400;16.920;2022-12-07T07:57:02;100036.16;;;1.25;100.00
35577;BME280;21680;52.400;16.920;2022-12-07T07:59:27;100038.96;;;1.26;100.00
35577;BME280;21680;52.400;16.920;2022-12-07T08:01:53;100036.16;;;1.25;100.00
35577;BME280;21680;52.400;16.920;2022-12-07T08:04:18;100037.39;;;1.25;100.00
35577;BME280;21680;52.400;16.920;2022-12-07T08:06:43;100042.52;;;1.24;100.00
35577;BME280;21680;52.400;16.920;2022-12-07T08:09:09;100035.32;;;1.22;100.00
35577;BME280;21680;52.400;16.920;2022-12-07T08:11:35;100028.82;;;1.22;100.00
35577;BME280;21680;52.400;16.920;2022-12-07T08:14:01;100028.63;;;1.23;100.00
35577;BME280;21680;52.400;16.920;2022-12-07T08:16:27;100026.30;;;1.25;100.00
35577;BME280;21680;52.400;16.920;2022-12-07T08:18:52;100022.21;;;1.28;100.00
35577;BME280;21680;52.400;16.920;2022-12-07T08:21:17;100023.23;;;1.30;100.00
35577;BME280;21680;52.400;16.920;2022-12-07T08:23:43;100019.83;;;1.34;100.00
35577;BME280;21680;52.400;16.920;2022-12-07T08:26:11;100018.77;;;1.34;100.00
35577;BME280;21680;52.400;16.920;2022-12-07T08:28:37;100019.89;;;1.30;100.00
35577;BME280;21680;52.400;16.920;2022-12-07T08:31:06;100025.17;;;1.30;100.00
35577;BME280;21680;52.400;16.920;2022-12-07T08:33:32;100018.19;;;1.26;100.00
35577;BME280;21680;52.400;16.920;2022-12-07T08:36:05;100020.15;;;1.25;100.00
35577;BME280;21680;52.400;16.920;2022-12-07T08:38:31;100023.87;;;1.23;100.00
35577;BME280;21680;52.400;16.920;2022-12-07T08:40:57;100025.09;;;1.24;100.00
35577;BME280;21680;52.400;16.920;2022-12-07T08:43:23;100024.25;;;1.21;100.00
35577;BME280;21680;52.400;16.920;2022-12-07T08:45:54;100024.97;;;1.20;100.00
35577;BME280;21680;52.400;16.920;2022-12-07T08:48:24;100020.13;;;1.15;100.00
35577;BME280;21680;52.400;16.920;2022-12-07T08:50:51;100023.73;;;1.09;100.00
35577;BME280;21680;52.400;16.920;2022-12-07T08:53:17;100019.27;;;1.03;100.00
35577;BME280;21680;52.400;16.920;2022-12-07T08:55:44;100015.08;;;1.00;100.00
35577;BME280;21680;52.400;16.920;2022-12-07T08:58:10;100010.89;;;0.97;100.00
35577;BME280;21680;52.400;16.920;2022-12-07T09:00:35;100003.39;;;0.92;100.00
35577;BME280;21680;52.400;16.920;2022-12-07T09:03:01;100003.80;;;0.88;100.00
35577;BME280;21680;52.400;16.920;2022-12-07T09:05:26;100003.48;;;0.87;100.00
35577;BME280;21680;52.400;16.920;2022-12-07T09:07:55;100001.05;;;0.85;100.00
35577;BME280;21680;52.400;16.920;2022-12-07T09:10:21;99997.75;;;0.82;100.00
35577;BME280;21680;52.400;16.920;2022-12-07T09:12:47;99991.10;;;0.79;100.00
35577;BME280;21680;52.400;16.920;2022-12-07T09:15:12;99990.05;;;0.79;100.00
35577;BME280;21680;52.400;16.920;2022-12-07T09:17:38;99984.25;;;0.78;100.00
35577;BME280;21680;52.400;16.920;2022-12-07T09:20:05;99984.23;;;0.80;100.00
35577;BME280;21680;52.400;16.920;2022-12-07T09:22:31;99982.48;;;0.80;100.00
35577;BME280;21680;52.400;16.920;2022-12-07T09:24:57;99979.19;;;0.76;100.00
35577;BME280;21680;52.400;16.920;2022-12-07T09:27:23;99979.55;;;0.75;100.00
35577;BME280;21680;52.400;16.920;2022-12-07T09:29:49;99975.88;;;0.74;100.00
35577;BME280;21680;52.400;16.920;2022-12-07T09:32:14;99973.30;;;0.70;100.00
35577;BME280;21680;52.400;16.920;2022-12-07T09:34:39;99969.50;;;0.65;100.00
35577;BME280;21680;52.400;16.920;2022-12-07T09:37:05;99965.49;;;0.62;100.00
35577;BME280;21680;52.400;16.920;2022-12-07T09:39:31;99967.77;;;0.62;100.00
35577;BME280;21680;52.400;16.920;2022-12-07T09:41:57;99966.16;;;0.64;100.00
35577;BME280;21680;52.400;16.920;2022-12-07T09:44:25;99961.06;;;0.64;100.00
35577;BME280;21680;52.400;16.920;2022-12-07T09:46:52;99957.36;;;0.65;100.00
35577;BME280;21680;52.400;16.920;2022-12-07T09:49:20;99955.60;;;0.65;100.00
35577;BME280;21680;52.400;16.920;2022-12-07T09:51:46;99954.02;;;0.65;100.00
35577;BME280;21680;52.400;16.920;2022-12-07T09:54:15;99948.56;;;0.66;100.00
35577;BME280;21680;52.400;16.920;2022-12-07T09:56:41;99947.83;;;0.69;100.00
35577;BME280;21680;52.400;16.920;2022-12-07T09:59:13;99942.89;;;0.70;100.00
35577;BME280;21680;52.400;16.920;2022-12-07T10:01:42;99937.38;;;0.73;100.00
35577;BME280;21680;52.400;16.920;2022-12-07T10:04:14;99937.01;;;0.75;100.00
35577;BME280;21680;52.400;16.920;2022-12-07T10:06:41;99930.00;;;0.73;100.00
35577;BME280;21680;52.400;16.920;2022-12-07T10:09:15;99925.42;;;0.73;100.00
35577;BME280;21680;52.400;16.920;2022-12-07T10:12:03;99922.27;;;0.73;100.00
35577;BME280;21680;52.400;16.920;2022-12-07T10:14:30;99921.06;;;0.71;100.00
35577;BME280;21680;52.400;16.920;2022-12-07T10:16:56;99921.61;;;0.69;100.00
35577;BME280;21680;52.400;16.920;2022-12-07T10:19:32;99915.64;;;0.69;100.00
35577;BME280;21680;52.400;16.920;2022-12-07T10:24:25;99913.73;;;0.67;100.00
35577;BME280;21680;52.400;16.920;2022-12-07T10:26:51;99911.08;;;0.68;100.00
35577;BME280;21680;52.400;16.920;2022-12-07T10:29:21;99911.82;;;0.66;100.00
35577;BME280;21680;52.400;16.920;2022-12-07T10:31:54;99908.69;;;0.64;100.00
35577;BME280;21680;52.400;16.920;2022-12-07T10:34:24;99911.41;;;0.58;100.00
35577;BME280;21680;52.400;16.920;2022-12-07T10:36:52;99913.59;;;0.53;100.00
35577;BME280;21680;52.400;16.920;2022-12-07T10:39:19;99916.98;;;0.49;100.00
35577;BME280;21680;52.400;16.920;2022-12-07T10:42:03;99916.15;;;0.46;100.00
35577;BME280;21680;52.400;16.920;2022-12-07T10:44:30;99912.33;;;0.43;100.00
35577;BME280;21680;52.400;16.920;2022-12-07T10:52:50;99894.79;;;0.41;100.00
35577;BME280;21680;52.400;16.920;2022-12-07T10:55:29;99893.16;;;0.44;100.00
35577;BME280;21680;52.400;16.920;2022-12-07T10:58:02;99891.56;;;0.45;100.00
35577;BME280;21680;52.400;16.920;2022-12-07T11:01:11;99883.98;;;0.47;100.00
35577;BME280;21680;52.400;16.920;2022-12-07T11:06:27;99879.64;;;0.54;100.00
35577;BME280;21680;52.400;16.920;2022-12-07T11:09:03;99872.73;;;0.58;100.00
35577;BME280;21680;52.400;16.920;2022-12-07T11:17:22;99857.77;;;0.71;100.00
35577;BME280;21680;52.400;16.920;2022-12-07T11:20:12;99853.69;;;0.72;100.00
35577;BME280;21680;52.400;16.920;2022-12-07T11:22:51;99850.35;;;0.73;100.00
35577;BME280;21680;52.400;16.920;2022-12-07T11:29:05;99846.45;;;0.74;100.00
35577;BME280;21680;52.400;16.920;2022-12-07T11:34:29;99843.38;;;0.69;100.00
35577;BME280;21680;52.400;16.920;2022-12-07T11:37:01;99846.34;;;0.59;100.00
35577;BME280;21680;52.400;16.920;2022-12-07T11:39:33;99844.04;;;0.49;100.00
35577;BME280;21680;52.400;16.920;2022-12-07T11:42:14;99842.40;;;0.42;100.00
35577;BME280;21680;52.400;16.920;2022-12-07T11:44:53;99840.33;;;0.39;100.00
35577;BME280;21680;52.400;16.920;2022-12-07T11:47:45;99840.45;;;0.43;100.00
35577;BME280;21680;52.400;16.920;2022-12-07T11:50:24;99832.44;;;0.49;100.00
35577;BME280;21680;52.400;16.920;2022-12-07T11:53:00;99830.42;;;0.54;100.00
35577;BME280;21680;52.400;16.920;2022-12-07T11:58:24;99822.11;;;0.69;100.00
35577;BME280;21680;52.400;16.920;2022-12-07T12:06:29;99816.83;;;0.89;100.00
35577;BME280;21680;52.400;16.920;2022-12-07T12:19:37;99803.05;;;1.22;100.00
35577;BME280;21680;52.400;16.920;2022-12-07T12:22:17;99804.55;;;1.26;100.00
35577;BME280;21680;52.400;16.920;2022-12-07T12:24:46;99801.64;;;1.31;100.00
35577;BME280;21680;52.400;16.920;2022-12-07T12:27:30;99802.04;;;1.38;100.00
35577;BME280;21680;52.400;16.920;2022-12-07T12:29:59;99803.51;;;1.43;100.00
35577;BME280;21680;52.400;16.920;2022-12-07T12:32:42;99793.77;;;1.46;100.00
35577;BME280;21680;52.400;16.920;2022-12-07T12:37:54;99794.58;;;1.50;100.00
35577;BME280;21680;52.400;16.920;2022-12-07T12:42:52;99792.18;;;1.55;100.00
35577;BME280;21680;52.400;16.920;2022-12-07T12:45:28;99790.71;;;1.58;100.00
35577;BME280;21680;52.400;16.920;2022-12-07T12:48:02;99800.17;;;1.60;100.00
35577;BME280;21680;52.400;16.920;2022-12-07T12:50:35;99789.98;;;1.60;100.00
35577;BME280;21680;52.400;16.920;2022-12-07T12:53:16;99790.33;;;1.59;100.00
35577;BME280;21680;52.400;16.920;2022-12-07T12:55:49;99789.10;;;1.59;100.00
35577;BME280;21680;52.400;16.920;2022-12-07T13:00:45;99787.05;;;1.56;100.00
35577;BME280;21680;52.400;16.920;2022-12-07T13:03:29;99786.02;;;1.54;100.00
35577;BME280;21680;52.400;16.920;2022-12-07T13:06:18;99796.64;;;1.52;100.00
35577;BME280;21680;52.400;16.920;2022-12-07T13:08:45;99799.85;;;1.50;100.00
35577;BME280;21680;52.400;16.920;2022-12-07T13:11:41;99794.65;;;1.46;100.00
35577;BME280;21680;52.400;16.920;2022-12-07T13:17:08;99806.09;;;1.37;100.00
35577;BME280;21680;52.400;16.920;2022-12-07T13:19:53;99804.40;;;1.34;100.00
35577;BME280;21680;52.400;16.920;2022-12-07T13:27:22;99801.41;;;1.33;100.00
35577;BME280;21680;52.400;16.920;2022-12-07T13:29:50;99804.02;;;1.36;100.00
35577;BME280;21680;52.400;16.920;2022-12-07T13:32:24;99812.08;;;1.38;100.00
35577;BME280;21680;52.400;16.920;2022-12-07T13:34:50;99814.68;;;1.39;100.00
35577;BME280;21680;52.400;16.920;2022-12-07T13:37:23;99819.60;;;1.40;100.00
35577;BME280;21680;52.400;16.920;2022-12-07T13:39:56;99822.78;;;1.20;100.00
35577;BME280;21680;52.400;16.920;2022-12-07T13:42:27;99825.66;;;0.97;100.00
35577;BME280;21680;52.400;16.920;2022-12-07T13:44:54;99830.05;;;0.87;100.00
35577;BME280;21680;52.400;16.920;2022-12-07T13:47:36;99832.70;;;0.87;100.00
35577;BME280;21680;52.400;16.920;2022-12-07T13:50:22;99839.02;;;0.88;100.00
35577;BME280;21680;52.400;16.920;2022-12-07T13:52:48;99843.58;;;0.89;100.00
35577;BME280;21680;52.400;16.920;2022-12-07T13:55:16;99843.73;;;0.89;100.00
35577;BME280;21680;52.400;16.920;2022-12-07T13:57:52;99843.38;;;0.90;100.00
35577;BME280;21680;52.400;16.920;2022-12-07T14:00:22;99849.32;;;0.92;100.00
35577;BME280;21680;52.400;16.920;2022-12-07T14:02:59;99848.60;;;0.93;100.00
35577;BME280;21680;52.400;16.920;2022-12-07T14:05:27;99849.27;;;0.95;100.00
35577;BME280;21680;52.400;16.920;2022-12-07T14:07:57;99851.89;;;0.96;100.00
35577;BME280;21680;52.400;16.920;2022-12-07T14:10:26;99848.35;;;0.97;100.00
35577;BME280;21680;52.400;16.920;2022-12-07T14:12:52;99851.30;;;0.99;100.00
35577;BME280;21680;52.400;16.920;2022-12-07T14:15:27;99855.17;;;1.00;100.00
35577;BME280;21680;52.400;16.920;2022-12-07T14:17:54;99859.92;;;1.00;100.00
35577;BME280;21680;52.400;16.920;2022-12-07T14:20:40;99860.13;;;0.98;100.00
35577;BME280;21680;52.400;16.920;2022-12-07T14:23:22;99866.64;;;0.97;100.00
35577;BME280;21680;52.400;16.920;2022-12-07T14:25:51;99868.77;;;0.96;100.00